sensor_id;sensor_type;location;lat;lon;timestamp;pressure;altitude;pressure_sealevel;temperature;humidity
57050;BME280;42935;50.966;16.992;2022-08-19T00:00:07;100712.83;;;22.43;100.00
57050;BME280;42935;50.966;16.992;2022-08-19T00:03:20;100705.84;;;22.43;100.00
57050;BME280;42935;50.966;16.992;2022-08-19T00:06:38;100695.38;;;22.28;100.00
57050;BME280;42935;50.966;16.992;2022-08-19T00:09:50;100688.84;;;22.11;100.00
57050;BME280;42935;50.966;16.992;2022-08-19T00:13:06;100681.09;;;22.05;100.00
57050;BME280;42935;50.966;16.992;2022-08-19T00:16:24;100672.16;;;22.08;100.00
57050;BME280;42935;50.966;16.992;2022-08-19T00:19:38;100664.48;;;22.24;100.00
57050;BME280;42935;50.966;16.992;2022-08-19T00:22:52;100673.30;;;22.16;100.00
57050;BME280;42935;50.966;16.992;2022-08-19T00:26:10;100677.18;;;22.19;100.00
57050;BME280;42935;50.966;16.992;2022-08-19T00:29:24;100680.47;;;22.26;100.00
57050;BME280;42935;50.966;16.992;2022-08-19T00:32:34;100694.36;;;22.24;100.00
57050;BME280;42935;50.966;16.992;2022-08-19T00:35:49;100694.69;;;22.18;100.00
57050;BME280;42935;50.966;16.992;2022-08-19T00:39:04;100670.55;;;22.26;100.00
57050;BME280;42935;50.966;16.992;2022-08-19T00:42:20;100647.95;;;22.33;100.00
57050;BME280;42935;50.966;16.992;2022-08-19T00:45:36;100679.76;;;21.86;100.00
57050;BME280;42935;50.966;16.992;2022-08-19T00:48:52;100679.05;;;21.94;100.00
57050;BME280;42935;50.966;16.992;2022-08-19T00:52:12;100667.98;;;22.06;100.00
57050;BME280;42935;50.966;16.992;2022-08-19T00:55:25;100657.94;;;21.66;100.00
57050;BME280;42935;50.966;16.992;2022-08-19T00:58:40;100657.10;;;21.63;100.00
57050;BME280;42935;50.966;16.992;2022-08-19T01:02:01;100651.80;;;21.49;100.00
57050;BME280;42935;50.966;16.992;2022-08-19T01:05:22;100644.95;;;21.54;100.00
57050;BME280;42935;50.966;16.992;2022-08-19T01:08:36;100641.15;;;21.54;100.00
57050;BME280;42935;50.966;16.992;2022-08-19T01:11:46;100637.56;;;21.59;100.00
57050;BME280;42935;50.966;16.992;2022-08-19T01:14:55;100637.48;;;21.47;100.00
57050;BME280;42935;50.966;16.992;2022-08-19T01:18:08;100635.73;;;21.37;100.00
57050;BME280;42935;50.966;16.992;2022-08-19T01:21:27;100630.10;;;21.26;100.00
57050;BME280;42935;50.966;16.992;2022-08-19T01:24:40;100623.80;;;21.33;100.00
57050;BME280;42935;50.966;16.992;2022-08-19T01:27:52;100623.09;;;21.43;100.00
57050;BME280;42935;50.966;16.992;2022-08-19T01:31:14;100629.77;;;21.22;100.00
57050;BME280;42935;50.966;16.992;2022-08-19T01:34:27;100638.38;;;21.18;100.00
57050;BME280;42935;50.966;16.992;2022-08-19T01:37:47;100637.52;;;21.19;100.00
57050;BME280;42935;50.966;16.992;2022-08-19T01:41:05;100636.64;;;20.86;100.00
57050;BME280;42935;50.966;16.992;2022-08-19T01:44:16;100629.52;;;20.80;100.00
57050;BME280;42935;50.966;16.992;2022-08-19T01:47:36;100619.80;;;20.91;100.00
57050;BME280;42935;50.966;16.992;2022-08-19T01:50:56;100623.61;;;20.86;100.00
57050;BME280;42935;50.966;16.992;2022-08-19T01:54:09;100622.55;;;20.87;100.00
57050;BME280;42935;50.966;16.992;2022-08-19T01:57:23;100629.09;;;21.04;100.00
57050;BME280;42935;50.966;16.992;2022-08-19T02:00:41;100627.86;;;20.94;100.00
57050;BME280;42935;50.966;16.992;2022-08-19T02:03:52;100619.39;;;20.65;100.00
57050;BME280;42935;50.966;16.992;2022-08-19T02:07:09;100621.40;;;20.59;100.00
57050;BME280;42935;50.966;16.992;2022-08-19T02:10:21;100617.97;;;20.63;100.00
57050;BME280;42935;50.966;16.992;2022-08-19T02:13:37;100607.18;;;20.55;100.00
57050;BME280;42935;50.966;16.992;2022-08-19T02:16:48;100605.93;;;20.43;100.00
57050;BME280;42935;50.966;16.992;2022-08-19T02:19:55;100604.23;;;20.47;100.00
57050;BME280;42935;50.966;16.992;2022-08-19T02:23:02;100605.65;;;20.55;100.00
57050;BME280;42935;50.966;16.992;2022-08-19T02:26:20;100598.21;;;20.57;100.00
57050;BME280;42935;50.966;16.992;2022-08-19T02:29:36;100585.27;;;20.40;100.00
57050;BME280;42935;50.966;16.992;2022-08-19T02:32:46;100591.96;;;20.37;100.00
57050;BME280;42935;50.966;16.992;2022-08-19T02:35:57;100590.84;;;20.48;100.00
57050;BME280;42935;50.966;16.992;2022-08-19T02:39:10;100599.77;;;20.50;100.00
57050;BME280;42935;50.966;16.992;2022-08-19T02:42:20;100602.23;;;20.40;100.00
57050;BME280;42935;50.966;16.992;2022-08-19T02:45:39;100594.81;;;20.20;100.00
57050;BME280;42935;50.966;16.992;2022-08-19T02:49:02;100595.63;;;19.86;100.00
57050;BME280;42935;50.966;16.992;2022-08-19T02:52:14;100593.81;;;19.84;100.00
57050;BME280;42935;50.966;16.992;2022-08-19T02:55:20;100592.44;;;19.78;100.00
57050;BME280;42935;50.966;16.992;2022-08-19T02:58:31;100604.84;;;19.99;100.00
57050;BME280;42935;50.966;16.992;2022-08-19T03:01:42;100612.37;;;20.09;100.00
57050;BME280;42935;50.966;16.992;2022-08-19T03:04:56;100621.26;;;19.98;100.00
57050;BME280;42935;50.966;16.992;2022-08-19T03:08:07;100626.00;;;19.85;100.00
57050;BME280;42935;50.966;16.992;2022-08-19T03:11:29;100636.23;;;19.79;100.00
57050;BME280;42935;50.966;16.992;2022-08-19T03:14:39;100644.19;;;19.80;100.00
57050;BME280;42935;50.966;16.992;2022-08-19T03:17:50;100639.73;;;19.81;100.00
57050;BME280;42935;50.966;16.992;2022-08-19T03:21:08;100637.34;;;19.72;100.00
57050;BME280;42935;50.966;16.992;2022-08-19T03:24:20;100633.98;;;19.47;100.00
57050;BME280;42935;50.966;16.992;2022-08-19T03:27:30;100629.73;;;19.50;100.00
57050;BME280;42935;50.966;16.992;2022-08-19T03:30:55;100625.70;;;19.47;100.00
57050;BME280;42935;50.966;16.992;2022-08-19T03:34:14;100620.55;;;19.47;100.00
57050;BME280;42935;50.966;16.992;2022-08-19T03:37:25;100617.23;;;19.60;100.00
57050;BME280;42935;50.966;16.992;2022-08-19T03:40:45;100617.93;;;19.54;100.00
57050;BME280;42935;50.966;16.992;2022-08-19T03:43:58;100624.63;;;19.51;100.00
57050;BME280;42935;50.966;16.992;2022-08-19T03:47:17;100635.33;;;19.38;100.00
57050;BME280;42935;50.966;16.992;2022-08-19T03:50:32;100638.91;;;19.28;100.00
57050;BME280;42935;50.966;16.992;2022-08-19T03:53:42;100645.48;;;19.21;100.00
57050;BME280;42935;50.966;16.992;2022-08-19T03:56:55;100647.40;;;19.29;100.00
57050;BME280;42935;50.966;16.992;2022-08-19T04:00:42;100644.78;;;19.40;100.00
57050;BME280;42935;50.966;16.992;2022-08-19T04:03:58;100641.69;;;19.52;100.00
57050;BME280;42935;50.966;16.992;2022-08-19T04:07:14;100641.96;;;19.51;100.00
57050;BME280;42935;50.966;16.992;2022-08-19T04:10:37;100648.90;;;19.45;100.00
57050;BME280;42935;50.966;16.992;2022-08-19T04:13:49;100659.16;;;19.36;100.00
57050;BME280;42935;50.966;16.992;2022-08-19T04:17:05;100650.27;;;19.31;100.00
57050;BME280;42935;50.966;16.992;2022-08-19T04:20:21;100659.45;;;19.32;100.00
57050;BME280;42935;50.966;16.992;2022-08-19T04:23:32;100658.09;;;19.37;100.00
57050;BME280;42935;50.966;16.992;2022-08-19T04:26:50;100654.45;;;19.47;100.00
57050;BME280;42935;50.966;16.992;2022-08-19T04:29:57;100653.87;;;19.51;100.00
57050;BME280;42935;50.966;16.992;2022-08-19T04:33:12;100649.09;;;19.50;100.00
57050;BME280;42935;50.966;16.992;2022-08-19T04:36:28;100642.26;;;19.67;100.00
57050;BME280;42935;50.966;16.992;2022-08-19T04:40:12;100639.44;;;19.79;100.00
57050;BME280;42935;50.966;16.992;2022-08-19T04:43:36;100647.59;;;19.93;100.00
57050;BME280;42935;50.966;16.992;2022-08-19T04:47:16;100638.00;;;20.05;100.00
57050;BME280;42935;50.966;16.992;2022-08-19T04:50:27;100637.11;;;20.12;100.00
57050;BME280;42935;50.966;16.992;2022-08-19T04:53:39;100630.79;;;20.05;100.00
57050;BME280;42935;50.966;16.992;2022-08-19T04:56:56;100639.42;;;20.13;100.00
57050;BME280;42935;50.966;16.992;2022-08-19T05:00:10;100637.65;;;20.28;100.00
57050;BME280;42935;50.966;16.992;2022-08-19T05:03:22;100638.13;;;20.46;100.00
57050;BME280;42935;50.966;16.992;2022-08-19T05:06:36;100627.52;;;20.56;100.00
57050;BME280;42935;50.966;16.992;2022-08-19T05:09:46;100631.70;;;20.75;100.00
57050;BME280;42935;50.966;16.992;2022-08-19T05:13:05;100632.74;;;20.86;100.00
57050;BME280;42935;50.966;16.992;2022-08-19T05:16:29;100641.05;;;21.03;100.00
57050;BME280;42935;50.966;16.992;2022-08-19T05:19:40;100631.42;;;21.17;100.00
57050;BME280;42935;50.966;16.992;2022-08-19T05:23:02;100628.11;;;21.29;100.00
57050;BME280;42935;50.966;16.992;2022-08-19T05:26:21;100635.77;;;21.36;100.00
57050;BME280;42935;50.966;16.992;2022-08-19T05:29:33;100635.08;;;21.45;100.00
57050;BME280;42935;50.966;16.992;2022-08-19T05:32:49;100633.09;;;21.57;100.00
57050;BME280;42935;50.966;16.992;2022-08-19T05:36:05;100630.92;;;21.68;100.00
57050;BME280;42935;50.966;16.992;2022-08-19T05:39:17;100636.03;;;21.69;100.00
57050;BME280;42935;50.966;16.992;2022-08-19T05:42:28;100636.34;;;21.71;100.00
57050;BME280;42935;50.966;16.992;2022-08-19T05:45:46;100629.46;;;21.79;100.00
57050;BME280;42935;50.966;16.992;2022-08-19T05:48:56;100628.18;;;21.86;100.00
57050;BME280;42935;50.966;16.992;2022-08-19T05:52:09;100641.54;;;21.82;100.00
57050;BME280;42935;50.966;16.992;2022-08-19T05:55:26;100639.29;;;22.00;100.00
57050;BME280;42935;50.966;16.992;2022-08-19T05:59:11;100639.90;;;22.06;100.00
57050;BME280;42935;50.966;16.992;2022-08-19T06:02:23;100651.59;;;22.14;100.00
57050;BME280;42935;50.966;16.992;2022-08-19T06:05:38;100669.23;;;22.21;100.00
57050;BME280;42935;50.966;16.992;2022-08-19T06:08:52;100683.14;;;22.19;100.00
57050;BME280;42935;50.966;16.992;2022-08-19T06:12:02;100691.45;;;22.27;100.00
57050;BME280;42935;50.966;16.992;2022-08-19T06:15:18;100696.08;;;22.44;100.00
57050;BME280;42935;50.966;16.992;2022-08-19T06:18:28;100694.13;;;22.53;100.00
57050;BME280;42935;50.966;16.992;2022-08-19T06:21:42;100696.27;;;22.64;100.00
57050;BME280;42935;50.966;16.992;2022-08-19T06:24:55;100694.84;;;22.72;100.00
57050;BME280;42935;50.966;16.992;2022-08-19T06:28:13;100705.92;;;22.64;100.00
57050;BME280;42935;50.966;16.992;2022-08-19T06:31:27;100722.66;;;22.76;100.00
57050;BME280;42935;50.966;16.992;2022-08-19T06:34:43;100732.23;;;22.88;100.00
57050;BME280;42935;50.966;16.992;2022-08-19T06:37:58;100738.36;;;23.13;100.00
57050;BME280;42935;50.966;16.992;2022-08-19T06:41:13;100744.86;;;23.32;100.00
57050;BME280;42935;50.966;16.992;2022-08-19T06:44:34;100743.65;;;23.49;100.00
57050;BME280;42935;50.966;16.992;2022-08-19T06:47:50;100746.40;;;23.63;100.00
57050;BME280;42935;50.966;16.992;2022-08-19T06:51:04;100747.24;;;23.84;100.00
57050;BME280;42935;50.966;16.992;2022-08-19T06:54:16;100746.95;;;23.95;100.00
57050;BME280;42935;50.966;16.992;2022-08-19T06:57:27;100750.85;;;23.97;100.00
57050;BME280;42935;50.966;16.992;2022-08-19T07:00:45;100747.52;;;24.18;100.00
57050;BME280;42935;50.966;16.992;2022-08-19T07:03:54;100749.80;;;24.39;100.00
57050;BME280;42935;50.966;16.992;2022-08-19T07:07:09;100746.88;;;24.62;98.54
57050;BME280;42935;50.966;16.992;2022-08-19T07:10:22;100763.49;;;24.95;92.79
57050;BME280;42935;50.966;16.992;2022-08-19T07:13:34;100767.80;;;25.28;92.45
57050;BME280;42935;50.966;16.992;2022-08-19T07:16:52;100775.00;;;25.41;86.82
57050;BME280;42935;50.966;16.992;2022-08-19T07:20:07;100781.69;;;25.62;85.56
57050;BME280;42935;50.966;16.992;2022-08-19T07:23:18;100780.44;;;25.53;86.80
57050;BME280;42935;50.966;16.992;2022-08-19T07:26:33;100778.00;;;25.59;85.69
57050;BME280;42935;50.966;16.992;2022-08-19T07:29:44;100780.68;;;25.72;85.48
57050;BME280;42935;50.966;16.992;2022-08-19T07:32:55;100780.73;;;25.80;81.79
57050;BME280;42935;50.966;16.992;2022-08-19T07:36:08;100786.27;;;26.01;81.86
57050;BME280;42935;50.966;16.992;2022-08-19T07:39:30;100789.14;;;26.04;78.64
57050;BME280;42935;50.966;16.992;2022-08-19T07:42:42;100783.73;;;26.22;79.14
57050;BME280;42935;50.966;16.992;2022-08-19T07:45:55;100784.89;;;26.19;77.32
57050;BME280;42935;50.966;16.992;2022-08-19T07:49:08;100782.48;;;26.26;78.86
57050;BME280;42935;50.966;16.992;2022-08-19T07:52:33;100784.07;;;26.27;75.06
57050;BME280;42935;50.966;16.992;2022-08-19T07:55:47;100778.40;;;26.44;77.15
57050;BME280;42935;50.966;16.992;2022-08-19T07:58:59;100782.12;;;26.55;76.62
57050;BME280;42935;50.966;16.992;2022-08-19T08:02:09;100791.44;;;26.83;77.83
57050;BME280;42935;50.966;16.992;2022-08-19T08:05:19;100796.97;;;27.06;74.58
57050;BME280;42935;50.966;16.992;2022-08-19T08:08:42;100798.42;;;27.36;75.22
57050;BME280;42935;50.966;16.992;2022-08-19T08:12:07;100796.39;;;27.51;73.42
57050;BME280;42935;50.966;16.992;2022-08-19T08:15:18;100794.34;;;27.47;67.19
57050;BME280;42935;50.966;16.992;2022-08-19T08:18:28;100797.84;;;27.26;68.20
57050;BME280;42935;50.966;16.992;2022-08-19T08:21:37;100796.99;;;27.60;69.34
57050;BME280;42935;50.966;16.992;2022-08-19T08:24:47;100784.37;;;28.07;67.58
57050;BME280;42935;50.966;16.992;2022-08-19T08:28:00;100781.41;;;28.31;66.08
57050;BME280;42935;50.966;16.992;2022-08-19T08:31:11;100787.06;;;28.52;66.09
57050;BME280;42935;50.966;16.992;2022-08-19T08:34:21;100790.74;;;28.96;64.05
57050;BME280;42935;50.966;16.992;2022-08-19T08:37:30;100795.67;;;28.60;64.78
57050;BME280;42935;50.966;16.992;2022-08-19T08:40:45;100802.19;;;28.78;62.14
57050;BME280;42935;50.966;16.992;2022-08-19T08:43:57;100803.13;;;28.85;62.01
57050;BME280;42935;50.966;16.992;2022-08-19T08:47:14;100803.30;;;29.00;62.96
57050;BME280;42935;50.966;16.992;2022-08-19T08:50:32;100794.98;;;29.16;62.35
57050;BME280;42935;50.966;16.992;2022-08-19T08:53:47;100780.99;;;28.90;64.48
57050;BME280;42935;50.966;16.992;2022-08-19T08:56:59;100771.55;;;29.17;62.99
57050;BME280;42935;50.966;16.992;2022-08-19T09:00:17;100749.50;;;29.24;63.54
57050;BME280;42935;50.966;16.992;2022-08-19T09:03:28;100743.05;;;29.71;60.99
57050;BME280;42935;50.966;16.992;2022-08-19T09:13:46;100768.32;;;30.29;59.31
57050;BME280;42935;50.966;16.992;2022-08-19T09:16:59;100769.53;;;30.42;60.24
57050;BME280;42935;50.966;16.992;2022-08-19T09:20:21;100759.17;;;30.78;57.91
57050;BME280;42935;50.966;16.992;2022-08-19T09:23:32;100758.23;;;30.79;58.30
57050;BME280;42935;50.966;16.992;2022-08-19T09:26:42;100754.48;;;30.74;56.90
57050;BME280;42935;50.966;16.992;2022-08-19T09:29:54;100754.09;;;30.80;56.11
57050;BME280;42935;50.966;16.992;2022-08-19T09:33:03;100766.21;;;30.60;56.10
57050;BME280;42935;50.966;16.992;2022-08-19T09:36:18;100761.34;;;30.87;56.14
57050;BME280;42935;50.966;16.992;2022-08-19T09:39:31;100760.87;;;30.66;57.70
57050;BME280;42935;50.966;16.992;2022-08-19T09:42:48;100763.72;;;30.29;58.48
57050;BME280;42935;50.966;16.992;2022-08-19T09:46:23;100767.79;;;30.06;57.76
57050;BME280;42935;50.966;16.992;2022-08-19T09:49:34;100764.09;;;30.55;62.75
57050;BME280;42935;50.966;16.992;2022-08-19T09:52:47;100763.55;;;31.07;59.29
57050;BME280;42935;50.966;16.992;2022-08-19T09:55:56;100749.95;;;31.42;56.13
57050;BME280;42935;50.966;16.992;2022-08-19T09:59:06;100761.58;;;31.19;57.70
57050;BME280;42935;50.966;16.992;2022-08-19T10:02:17;100762.62;;;30.98;55.37
57050;BME280;42935;50.966;16.992;2022-08-19T10:05:25;100768.84;;;31.23;56.99
57050;BME280;42935;50.966;16.992;2022-08-19T10:08:49;100764.39;;;31.69;54.63
57050;BME280;42935;50.966;16.992;2022-08-19T10:11:59;100764.66;;;31.95;58.33
57050;BME280;42935;50.966;16.992;2022-08-19T10:15:15;100763.06;;;32.13;54.76
57050;BME280;42935;50.966;16.992;2022-08-19T10:18:27;100751.63;;;31.66;52.88
57050;BME280;42935;50.966;16.992;2022-08-19T10:21:38;100762.81;;;31.43;55.93
57050;BME280;42935;50.966;16.992;2022-08-19T10:28:41;100752.05;;;31.04;56.73
57050;BME280;42935;50.966;16.992;2022-08-19T10:31:52;100749.45;;;31.00;53.21
57050;BME280;42935;50.966;16.992;2022-08-19T10:35:04;100748.38;;;31.23;54.00
57050;BME280;42935;50.966;16.992;2022-08-19T10:38:50;100740.92;;;31.66;53.03
57050;BME280;42935;50.966;16.992;2022-08-19T10:42:31;100748.57;;;31.96;54.20
57050;BME280;42935;50.966;16.992;2022-08-19T10:46:13;100752.72;;;31.84;52.17
57050;BME280;42935;50.966;16.992;2022-08-19T10:49:55;100761.32;;;31.64;51.89
57050;BME280;42935;50.966;16.992;2022-08-19T10:53:45;100762.23;;;31.94;51.70
57050;BME280;42935;50.966;16.992;2022-08-19T10:57:23;100760.50;;;32.06;54.37
57050;BME280;42935;50.966;16.992;2022-08-19T11:00:34;100746.93;;;32.41;54.33
57050;BME280;42935;50.966;16.992;2022-08-19T11:03:49;100746.54;;;32.78;53.03
57050;BME280;42935;50.966;16.992;2022-08-19T11:07:03;100758.98;;;32.71;52.84
57050;BME280;42935;50.966;16.992;2022-08-19T11:10:15;100750.78;;;32.70;49.30
57050;BME280;42935;50.966;16.992;2022-08-19T11:13:35;100759.80;;;32.78;51.50
57050;BME280;42935;50.966;16.992;2022-08-19T11:16:45;100762.66;;;32.58;48.52
57050;BME280;42935;50.966;16.992;2022-08-19T11:19:55;100766.38;;;32.63;47.73
57050;BME280;42935;50.966;16.992;2022-08-19T11:23:04;100763.76;;;33.00;48.76
57050;BME280;42935;50.966;16.992;2022-08-19T11:26:16;100769.04;;;32.09;47.48
57050;BME280;42935;50.966;16.992;2022-08-19T11:29:25;100772.55;;;31.43;46.26
57050;BME280;42935;50.966;16.992;2022-08-19T11:32:37;100771.88;;;31.44;49.89
57050;BME280;42935;50.966;16.992;2022-08-19T11:35:48;100774.74;;;31.60;49.64
57050;BME280;42935;50.966;16.992;2022-08-19T11:38:56;100776.41;;;31.66;50.71
57050;BME280;42935;50.966;16.992;2022-08-19T11:42:09;100775.54;;;31.80;51.01
57050;BME280;42935;50.966;16.992;2022-08-19T11:45:31;100779.33;;;32.09;52.35
57050;BME280;42935;50.966;16.992;2022-08-19T11:48:40;100773.25;;;32.90;52.47
57050;BME280;42935;50.966;16.992;2022-08-19T11:51:51;100767.71;;;32.83;50.46
57050;BME280;42935;50.966;16.992;2022-08-19T11:55:03;100762.46;;;33.00;51.00
57050;BME280;42935;50.966;16.992;2022-08-19T11:58:19;100760.59;;;33.17;50.18
57050;BME280;42935;50.966;16.992;2022-08-19T12:01:29;100760.60;;;33.25;52.05
57050;BME280;42935;50.966;16.992;2022-08-19T12:04:40;100759.63;;;33.04;50.38
57050;BME280;42935;50.966;16.992;2022-08-19T12:07:52;100758.78;;;32.82;49.13
57050;BME280;42935;50.966;16.992;2022-08-19T12:11:03;100766.03;;;32.24;53.16
57050;BME280;42935;50.966;16.992;2022-08-19T12:14:18;100765.23;;;31.77;49.44
57050;BME280;42935;50.966;16.992;2022-08-19T12:17:27;100763.47;;;32.10;49.50
57050;BME280;42935;50.966;16.992;2022-08-19T12:20:42;100762.18;;;32.34;48.64
57050;BME280;42935;50.966;16.992;2022-08-19T12:23:58;100760.42;;;33.10;49.32
57050;BME280;42935;50.966;16.992;2022-08-19T12:27:07;100762.98;;;32.75;47.63
57050;BME280;42935;50.966;16.992;2022-08-19T12:30:14;100761.68;;;32.64;48.05
57050;BME280;42935;50.966;16.992;2022-08-19T12:33:25;100756.61;;;33.08;48.43
57050;BME280;42935;50.966;16.992;2022-08-19T12:36:37;100755.16;;;32.50;48.39
57050;BME280;42935;50.966;16.992;2022-08-19T12:39:47;100758.24;;;32.89;47.43
57050;BME280;42935;50.966;16.992;2022-08-19T12:42:57;100753.36;;;33.08;47.91
57050;BME280;42935;50.966;16.992;2022-08-19T12:46:06;100749.55;;;33.09;46.34
57050;BME280;42935;50.966;16.992;2022-08-19T12:49:16;100761.48;;;33.05;49.43
57050;BME280;42935;50.966;16.992;2022-08-19T12:52:24;100769.77;;;32.92;46.68
57050;BME280;42935;50.966;16.992;2022-08-19T12:55:38;100766.05;;;32.66;47.70
57050;BME280;42935;50.966;16.992;2022-08-19T12:58:50;100763.99;;;32.83;46.88
57050;BME280;42935;50.966;16.992;2022-08-19T13:02:02;100758.91;;;33.08;49.73
57050;BME280;42935;50.966;16.992;2022-08-19T13:05:19;100750.34;;;33.96;49.53
57050;BME280;42935;50.966;16.992;2022-08-19T13:08:32;100745.94;;;34.01;47.26
57050;BME280;42935;50.966;16.992;2022-08-19T13:11:43;100744.20;;;33.72;45.55
57050;BME280;42935;50.966;16.992;2022-08-19T13:15:04;100742.09;;;33.95;47.82
57050;BME280;42935;50.966;16.992;2022-08-19T13:18:16;100739.09;;;34.20;45.12
57050;BME280;42935;50.966;16.992;2022-08-19T13:21:26;100735.94;;;34.17;44.60
57050;BME280;42935;50.966;16.992;2022-08-19T13:24:39;100731.46;;;34.72;44.90
57050;BME280;42935;50.966;16.992;2022-08-19T13:27:49;100736.22;;;33.41;49.16
57050;BME280;42935;50.966;16.992;2022-08-19T13:30:59;100742.09;;;32.78;46.61
57050;BME280;42935;50.966;16.992;2022-08-19T13:34:28;100742.79;;;33.06;50.01
57050;BME280;42935;50.966;16.992;2022-08-19T13:37:40;100748.56;;;32.66;49.86
57050;BME280;42935;50.966;16.992;2022-08-19T13:40:52;100750.28;;;32.21;49.11
57050;BME280;42935;50.966;16.992;2022-08-19T13:44:04;100745.41;;;31.81;50.10
57050;BME280;42935;50.966;16.992;2022-08-19T13:47:15;100744.70;;;31.86;50.14
57050;BME280;42935;50.966;16.992;2022-08-19T13:50:29;100743.57;;;31.35;50.21
57050;BME280;42935;50.966;16.992;2022-08-19T13:53:37;100740.38;;;31.07;50.93
57050;BME280;42935;50.966;16.992;2022-08-19T13:56:48;100750.11;;;30.71;51.20
57050;BME280;42935;50.966;16.992;2022-08-19T13:59:59;100751.41;;;30.49;50.60
57050;BME280;42935;50.966;16.992;2022-08-19T14:03:11;100753.62;;;30.40;50.99
57050;BME280;42935;50.966;16.992;2022-08-19T14:06:21;100753.66;;;30.55;52.00
57050;BME280;42935;50.966;16.992;2022-08-19T14:09:34;100751.34;;;30.26;52.82
57050;BME280;42935;50.966;16.992;2022-08-19T14:12:48;100757.55;;;30.04;51.48
57050;BME280;42935;50.966;16.992;2022-08-19T14:16:00;100761.91;;;29.83;52.75
57050;BME280;42935;50.966;16.992;2022-08-19T14:19:07;100757.04;;;29.85;51.98
57050;BME280;42935;50.966;16.992;2022-08-19T14:22:18;100752.13;;;29.61;53.78
57050;BME280;42935;50.966;16.992;2022-08-19T14:25:34;100758.46;;;29.61;54.50
57050;BME280;42935;50.966;16.992;2022-08-19T14:28:43;100756.39;;;29.55;54.10
57050;BME280;42935;50.966;16.992;2022-08-19T14:31:54;100753.48;;;29.58;54.90
57050;BME280;42935;50.966;16.992;2022-08-19T14:35:07;100751.02;;;29.59;55.19
57050;BME280;42935;50.966;16.992;2022-08-19T14:38:18;100748.32;;;29.63;52.97
57050;BME280;42935;50.966;16.992;2022-08-19T14:41:30;100748.70;;;29.93;52.38
57050;BME280;42935;50.966;16.992;2022-08-19T14:45:12;100744.91;;;29.98;54.84
57050;BME280;42935;50.966;16.992;2022-08-19T14:48:22;100748.52;;;29.68;57.10
57050;BME280;42935;50.966;16.992;2022-08-19T14:52:04;100752.95;;;29.51;58.10
57050;BME280;42935;50.966;16.992;2022-08-19T14:55:15;100748.60;;;29.50;58.12
57050;BME280;42935;50.966;16.992;2022-08-19T14:58:27;100741.91;;;29.43;59.17
57050;BME280;42935;50.966;16.992;2022-08-19T15:01:34;100736.58;;;29.54;58.76
57050;BME280;42935;50.966;16.992;2022-08-19T15:04:45;100732.88;;;29.51;58.65
57050;BME280;42935;50.966;16.992;2022-08-19T15:07:57;100729.03;;;29.46;58.12
57050;BME280;42935;50.966;16.992;2022-08-19T15:11:11;100740.73;;;29.36;59.19
57050;BME280;42935;50.966;16.992;2022-08-19T15:14:27;100739.66;;;29.44;58.36
57050;BME280;42935;50.966;16.992;2022-08-19T15:17:47;100744.58;;;29.39;58.86
57050;BME280;42935;50.966;16.992;2022-08-19T15:20:58;100745.67;;;29.44;59.87
57050;BME280;42935;50.966;16.992;2022-08-19T15:24:10;100748.16;;;29.59;62.76
57050;BME280;42935;50.966;16.992;2022-08-19T15:27:22;100758.64;;;29.63;64.81
57050;BME280;42935;50.966;16.992;2022-08-19T15:30:33;100762.94;;;29.42;66.35
57050;BME280;42935;50.966;16.992;2022-08-19T15:33:43;100770.13;;;29.26;68.01
57050;BME280;42935;50.966;16.992;2022-08-19T15:36:53;100776.30;;;29.04;69.09
57050;BME280;42935;50.966;16.992;2022-08-19T15:40:10;100770.72;;;28.82;70.42
57050;BME280;42935;50.966;16.992;2022-08-19T15:43:20;100771.66;;;28.35;72.90
57050;BME280;42935;50.966;16.992;2022-08-19T15:46:32;100782.65;;;27.95;76.67
57050;BME280;42935;50.966;16.992;2022-08-19T15:50:18;100808.15;;;27.92;79.61
57050;BME280;42935;50.966;16.992;2022-08-19T15:54:10;100797.48;;;27.63;86.88
57050;BME280;42935;50.966;16.992;2022-08-19T15:57:20;100794.53;;;27.71;90.68
57050;BME280;42935;50.966;16.992;2022-08-19T16:00:47;100789.46;;;27.13;97.63
57050;BME280;42935;50.966;16.992;2022-08-19T16:04:09;100780.86;;;27.04;100.00
57050;BME280;42935;50.966;16.992;2022-08-19T16:07:30;100756.29;;;27.06;100.00
57050;BME280;42935;50.966;16.992;2022-08-19T16:10:42;100743.68;;;27.32;99.81
57050;BME280;42935;50.966;16.992;2022-08-19T16:14:01;100749.42;;;27.46;98.93
57050;BME280;42935;50.966;16.992;2022-08-19T16:36:41;100769.43;;;29.00;77.59
57050;BME280;42935;50.966;16.992;2022-08-19T16:39:52;100774.59;;;29.07;75.97
57050;BME280;42935;50.966;16.992;2022-08-19T16:43:03;100779.44;;;29.16;75.76
57050;BME280;42935;50.966;16.992;2022-08-19T16:46:11;100788.70;;;29.08;76.16
57050;BME280;42935;50.966;16.992;2022-08-19T16:49:27;100783.09;;;28.96;77.19
57050;BME280;42935;50.966;16.992;2022-08-19T16:52:36;100775.52;;;28.74;77.90
57050;BME280;42935;50.966;16.992;2022-08-19T16:55:47;100781.98;;;28.59;78.59
57050;BME280;42935;50.966;16.992;2022-08-19T16:59:10;100787.06;;;28.42;80.03
57050;BME280;42935;50.966;16.992;2022-08-19T17:02:26;100793.95;;;27.79;86.11
57050;BME280;42935;50.966;16.992;2022-08-19T17:05:43;100789.87;;;27.19;91.29
57050;BME280;42935;50.966;16.992;2022-08-19T17:09:00;100799.48;;;27.43;89.57